Time;durP1;ratioP1;P1;durP2;ratioP2;P2;SDS_P1;SDS_P2;PMS_P1;PMS_P2;Temp;Humidity;BMP_temperature;BMP_pressure;BME280_temperature;BME280_humidity;BME280_pressure;Samples;Min_cycle;Max_cycle;Signal;HPM_P1;HPM_P2
2024/01/27 00:01:42;;;;;;;72.80;28.48;;;;;;;4.27;99.88;102484.47;8289349;28;20119;-56
2024/01/27 00:05:42;;;;;;;59.05;20.50;;;;;;;4.17;99.94;102486.59;8290188;28;20096;-58
2024/01/27 00:09:43;;;;;;;53.45;19.98;;;;;;;4.05;100.00;102482.53;8289927;28;20029;-55
2024/01/27 00:13:44;;;;;;;38.65;15.02;;;;;;;4.07;100.00;102478.00;8283454;28;20049;-56
2024/01/27 00:17:45;;;;;;;25.38;10.15;;;;;;;4.03;100.00;102492.41;8288282;28;20548;-56
2024/01/27 00:21:46;;;;;;;21.60;5.22;;;;;;;4.08;100.00;102477.06;8291312;28;20166;-55
2024/01/27 00:25:47;;;;;;;21.20;4.93;;;;;;;4.34;100.00;102476.19;8290814;28;20535;-55
2024/01/27 00:29:47;;;;;;;23.35;4.35;;;;;;;4.47;98.78;102481.97;8291527;28;20449;-56
2024/01/27 00:33:48;;;;;;;16.80;4.00;;;;;;;4.63;97.39;102477.84;8290279;28;20121;-58
2024/01/27 00:37:48;;;;;;;23.92;4.57;;;;;;;4.65;97.18;102497.38;8290466;28;20444;-55
2024/01/27 00:41:48;;;;;;;14.18;3.67;;;;;;;4.65;96.83;102492.03;8290807;28;20037;-56
2024/01/27 00:45:49;;;;;;;23.23;4.53;;;;;;;4.64;96.72;102487.63;8288010;28;20081;-55
2024/01/27 00:49:49;;;;;;;17.27;3.80;;;;;;;4.54;96.99;102494.25;8290803;28;20033;-56
2024/01/27 00:53:50;;;;;;;19.83;3.88;;;;;;;4.45;97.39;102499.91;8291031;28;20101;-55
2024/01/27 00:57:50;;;;;;;22.92;3.90;;;;;;;4.44;97.61;102506.19;8290024;28;20065;-57
2024/01/27 01:01:51;;;;;;;14.60;3.42;;;;;;;4.44;98.64;102509.75;8289864;28;20037;-55
2024/01/27 01:05:51;;;;;;;18.80;3.72;;;;;;;4.39;97.99;102506.34;8289901;28;20492;-54
2024/01/27 01:09:52;;;;;;;16.60;3.30;;;;;;;4.37;97.90;102507.31;8290166;28;20034;-55
2024/01/27 01:13:52;;;;;;;11.35;3.75;;;;;;;4.43;98.03;102509.78;8290450;28;20117;-54
2024/01/27 01:17:53;;;;;;;26.20;3.50;;;;;;;4.38;97.86;102509.94;8290433;28;20038;-55
2024/01/27 01:21:53;;;;;;;21.90;4.30;;;;;;;4.43;97.78;102501.75;8290179;28;20038;-55
2024/01/27 01:25:53;;;;;;;14.18;3.58;;;;;;;4.41;97.03;102504.50;8288330;28;20088;-55
2024/01/27 01:29:54;;;;;;;23.75;4.00;;;;;;;4.36;97.72;102505.59;8289891;28;20065;-55
2024/01/27 01:33:54;;;;;;;23.80;4.45;;;;;;;4.31;97.79;102507.53;8288654;28;20057;-55
2024/01/27 01:37:55;;;;;;;18.45;4.20;;;;;;;4.33;98.49;102511.03;8290256;28;20120;-55
2024/01/27 01:41:55;;;;;;;20.23;4.25;;;;;;;4.28;97.70;102513.88;8288854;28;20188;-55
2024/01/27 01:45:56;;;;;;;18.80;4.10;;;;;;;4.26;98.62;102514.84;8289923;28;20516;-54
2024/01/27 01:49:56;;;;;;;16.08;4.00;;;;;;;4.31;97.71;102512.88;8288779;28;20057;-54
2024/01/27 01:53:58;;;;;;;20.55;3.67;;;;;;;4.28;97.80;102519.22;8289252;28;20037;-54
2024/01/27 01:58:01;;;;;;;21.70;3.28;;;;;;;4.25;97.66;102510.41;8285513;28;20038;-56
2024/01/27 02:02:01;;;;;;;18.65;3.63;;;;;;;4.16;99.00;102513.41;8287544;28;20048;-56
2024/01/27 02:06:02;;;;;;;21.05;4.45;;;;;;;4.13;98.15;102518.84;8286354;28;20383;-55
2024/01/27 02:10:03;;;;;;;20.00;3.45;;;;;;;4.07;98.43;102515.47;8288087;28;20047;-55
2024/01/27 02:14:04;;;;;;;17.80;4.72;;;;;;;3.82;98.71;102519.84;8288731;28;20124;-56
2024/01/27 02:18:04;;;;;;;15.60;3.58;;;;;;;3.62;99.81;102519.63;8288791;28;20041;-55
2024/01/27 02:22:06;;;;;;;18.70;3.60;;;;;;;3.45;100.00;102507.72;8288010;28;20045;-57
2024/01/27 02:26:06;;;;;;;17.83;3.90;;;;;;;3.49;100.00;102520.03;8288653;28;20040;-55
2024/01/27 02:30:07;;;;;;;20.25;3.10;;;;;;;3.36;100.00;102519.53;8278916;28;25656;-56
2024/01/27 02:34:08;;;;;;;17.50;3.72;;;;;;;3.32;100.00;102531.25;8288500;28;20045;-55
2024/01/27 02:38:08;;;;;;;13.10;3.47;;;;;;;3.20;100.00;102522.72;8288476;28;20042;-55
2024/01/27 02:42:09;;;;;;;18.50;3.95;;;;;;;3.18;100.00;102530.78;8287749;28;20109;-56
2024/01/27 02:46:12;;;;;;;22.95;4.43;;;;;;;3.28;100.00;102531.38;8288211;28;20049;-56
2024/01/27 02:50:13;;;;;;;13.85;3.35;;;;;;;3.16;100.00;102524.59;8287837;28;20435;-56
2024/01/27 02:54:13;;;;;;;14.60;3.80;;;;;;;3.12;100.00;102520.28;8288588;28;20518;-57
2024/01/27 02:58:14;;;;;;;18.08;5.18;;;;;;;3.01;100.00;102522.38;8287766;28;20443;-56
2024/01/27 03:02:14;;;;;;;15.20;3.83;;;;;;;3.05;100.00;102524.03;8288006;28;20492;-55
2024/01/27 03:06:15;;;;;;;17.92;3.80;;;;;;;3.10;100.00;102532.81;8294383;28;20121;-56
2024/01/27 03:10:15;;;;;;;21.08;4.07;;;;;;;3.01;100.00;102540.19;8293962;28;20042;-56
2024/01/27 03:14:16;;;;;;;19.48;3.92;;;;;;;3.05;100.00;102531.19;8294496;28;20480;-56
2024/01/27 03:18:16;;;;;;;24.00;3.97;;;;;;;3.01;100.00;102530.41;8284891;28;20034;-55
2024/01/27 03:22:17;;;;;;;26.85;3.72;;;;;;;2.98;100.00;102530.47;8293664;28;20041;-56
2024/01/27 03:26:18;;;;;;;15.65;4.43;;;;;;;3.03;100.00;102544.59;8294149;28;20092;-56
2024/01/27 03:30:19;;;;;;;20.30;3.78;;;;;;;3.17;100.00;102545.06;8282594;28;20136;-56
2024/01/27 03:34:24;;;;;;;28.52;5.80;;;;;;;3.04;100.00;102534.75;8294026;28;20165;-56
2024/01/27 03:38:25;;;;;;;23.73;4.13;;;;;;;3.05;100.00;102540.06;8293453;28;20037;-56
2024/01/27 03:42:25;;;;;;;22.70;4.20;;;;;;;2.97;100.00;102550.09;8292601;28;20037;-55
2024/01/27 03:46:26;;;;;;;13.18;3.42;;;;;;;2.91;100.00;102542.25;8293288;28;20068;-56
2024/01/27 03:50:26;;;;;;;22.77;3.95;;;;;;;2.95;100.00;102543.03;8292996;28;20515;-56
2024/01/27 03:54:27;;;;;;;21.95;4.45;;;;;;;2.51;100.00;102546.94;8292962;28;20034;-55
2024/01/27 03:58:27;;;;;;;18.63;4.00;;;;;;;2.20;100.00;102556.63;8279645;28;20033;-58
2024/01/27 04:02:29;;;;;;;23.92;4.88;;;;;;;2.01;100.00;102561.53;8292778;28;20070;-59
2024/01/27 04:06:35;;;;;;;12.30;3.80;;;;;;;2.06;100.00;102548.09;8290936;28;20030;-57
2024/01/27 04:10:36;;;;;;;17.05;4.40;;;;;;;2.01;100.00;102552.66;8292329;28;20125;-57
2024/01/27 04:14:37;;;;;;;15.65;4.00;;;;;;;2.03;100.00;102559.72;8291667;28;20457;-57
2024/01/27 04:18:39;;;;;;;13.30;4.00;;;;;;;1.97;100.00;102559.88;8291029;28;20092;-57
2024/01/27 04:22:39;;;;;;;15.05;3.75;;;;;;;1.90;100.00;102568.91;8291569;28;20121;-57
2024/01/27 04:26:41;;;;;;;20.92;4.13;;;;;;;1.88;100.00;102567.19;8282835;28;20590;-55
2024/01/27 04:30:41;;;;;;;13.75;3.88;;;;;;;1.75;100.00;102568.41;8291358;28;20492;-57
2024/01/27 04:34:42;;;;;;;15.27;4.82;;;;;;;1.65;100.00;102577.53;8291573;28;20455;-57
2024/01/27 04:38:43;;;;;;;20.20;5.05;;;;;;;1.67;100.00;102581.91;8290966;28;20108;-56
2024/01/27 04:42:44;;;;;;;24.08;4.25;;;;;;;1.56;100.00;102583.06;8291388;28;20042;-56
2024/01/27 04:46:44;;;;;;;11.02;4.38;;;;;;;1.43;100.00;102584.19;8291226;28;20176;-56
2024/01/27 04:50:45;;;;;;;17.55;4.13;;;;;;;1.46;100.00;102581.47;8290865;28;20633;-56
2024/01/27 04:54:45;;;;;;;13.10;3.65;;;;;;;1.56;100.00;102572.38;8290869;28;20136;-56
2024/01/27 04:58:46;;;;;;;15.88;4.35;;;;;;;1.57;100.00;102574.13;8290777;28;20048;-56
2024/01/27 05:02:46;;;;;;;24.58;4.68;;;;;;;1.60;100.00;102579.41;8279415;28;20350;-56
2024/01/27 05:06:46;;;;;;;13.68;3.70;;;;;;;1.62;100.00;102580.25;8291640;28;20091;-55
2024/01/27 05:10:47;;;;;;;25.70;4.55;;;;;;;1.50;100.00;102573.38;8292939;28;20121;-56
2024/01/27 05:14:47;;;;;;;26.77;4.53;;;;;;;1.57;100.00;102575.03;8294947;28;20065;-56
2024/01/27 05:18:49;;;;;;;16.77;4.03;;;;;;;1.63;100.00;102579.34;8291134;28;20041;-57
2024/01/27 05:22:49;;;;;;;19.98;3.42;;;;;;;1.79;100.00;102570.06;8291881;28;20064;-56
2024/01/27 05:26:49;;;;;;;18.88;4.13;;;;;;;1.72;100.00;102568.47;8297100;28;20172;-56
2024/01/27 05:30:50;;;;;;;20.48;4.72;;;;;;;1.69;100.00;102561.41;8291500;28;20038;-56
2024/01/27 05:34:50;;;;;;;16.50;4.00;;;;;;;1.52;100.00;102565.34;8291542;28;20026;-56
2024/01/27 05:38:51;;;;;;;20.52;3.90;;;;;;;1.54;100.00;102571.53;8294408;28;20038;-56
2024/01/27 05:42:51;;;;;;;19.38;3.78;;;;;;;1.53;100.00;102567.13;8294893;28;20044;-55
2024/01/27 05:46:52;;;;;;;15.98;4.25;;;;;;;1.38;100.00;102556.78;8291629;28;20037;-57
2024/01/27 05:50:58;;;;;;;16.55;4.55;;;;;;;1.29;100.00;102557.88;8291005;28;20072;-56
2024/01/27 05:54:58;;;;;;;19.50;3.75;;;;;;;1.07;100.00;102561.00;8305373;28;20037;-56
2024/01/27 05:58:58;;;;;;;20.75;4.55;;;;;;;1.20;100.00;102566.06;8303411;28;20096;-56
2024/01/27 06:02:59;;;;;;;12.82;4.32;;;;;;;1.07;100.00;102575.19;8304697;28;20041;-55
2024/01/27 06:07:00;;;;;;;14.27;3.70;;;;;;;1.00;100.00;102570.00;8284268;28;20092;-55
2024/01/27 06:11:00;;;;;;;18.00;3.78;;;;;;;0.96;100.00;102565.66;8283077;28;20091;-55
2024/01/27 06:15:01;;;;;;;21.58;4.22;;;;;;;1.05;100.00;102579.69;8288958;28;20323;-55
2024/01/27 06:19:01;;;;;;;15.73;3.88;;;;;;;1.04;100.00;102566.41;8288422;28;20169;-56
2024/01/27 06:23:02;;;;;;;12.48;3.70;;;;;;;1.06;100.00;102577.88;8288748;28;20809;-55
2024/01/27 06:27:02;;;;;;;26.85;4.07;;;;;;;1.07;100.00;102577.84;8286642;28;20046;-56
2024/01/27 06:31:04;;;;;;;16.17;3.85;;;;;;;1.07;100.00;102590.31;8284965;28;20064;-55
2024/01/27 06:35:05;;;;;;;14.75;3.17;;;;;;;1.16;100.00;102576.81;8287746;28;20532;-56
2024/01/27 06:39:05;;;;;;;23.65;3.80;;;;;;;1.23;100.00;102575.75;8288295;28;20065;-57
2024/01/27 06:43:12;;;;;;;20.25;6.53;;;;;;;1.34;100.00;102579.94;8282750;28;20049;-57
2024/01/27 06:47:12;;;;;;;13.80;4.00;;;;;;;1.32;100.00;102579.13;8290813;28;20423;-56
2024/01/27 06:51:12;;;;;;;18.92;5.32;;;;;;;1.33;100.00;102585.31;8288578;28;20140;-54
2024/01/27 06:55:13;;;;;;;16.17;5.15;;;;;;;1.37;100.00;102589.69;8286412;28;20057;-56
2024/01/27 06:59:13;;;;;;;21.13;5.35;;;;;;;1.16;100.00;102587.47;8285522;28;20069;-56
2024/01/27 07:03:14;;;;;;;18.40;4.57;;;;;;;1.10;100.00;102592.91;8283685;28;20551;-55
2024/01/27 07:07:14;;;;;;;17.45;4.75;;;;;;;0.83;100.00;102596.09;8278947;28;20504;-57
2024/01/27 07:11:15;;;;;;;15.30;3.85;;;;;;;0.86;100.00;102593.38;8281811;28;20100;-57
2024/01/27 07:15:16;;;;;;;16.25;3.75;;;;;;;1.08;100.00;102594.72;8286090;28;20516;-56
2024/01/27 07:19:16;;;;;;;17.58;4.45;;;;;;;1.08;100.00;102594.72;8287050;28;20048;-57
2024/01/27 07:23:17;;;;;;;14.25;3.20;;;;;;;1.27;100.00;102606.75;8287702;28;20057;-57
2024/01/27 07:27:18;;;;;;;16.88;3.50;;;;;;;1.29;100.00;102611.16;8286983;28;20404;-57
2024/01/27 07:31:19;;;;;;;23.65;4.80;;;;;;;1.40;100.00;102610.94;8282266;28;20042;-56
2024/01/27 07:35:19;;;;;;;22.95;4.40;;;;;;;1.38;100.00;102618.09;8285355;28;20030;-56
2024/01/27 07:39:20;;;;;;;19.17;4.32;;;;;;;1.50;100.00;102625.81;8285053;28;20085;-56
2024/01/27 07:43:20;;;;;;;29.05;5.05;;;;;;;1.60;100.00;102632.72;8287114;28;20049;-56
2024/01/27 07:47:21;;;;;;;26.40;5.60;;;;;;;1.86;100.00;102633.03;8280048;28;20510;-56
2024/01/27 07:51:21;;;;;;;18.20;4.97;;;;;;;1.87;100.00;102634.78;8290751;28;20484;-56
2024/01/27 07:55:22;;;;;;;20.73;5.28;;;;;;;1.86;100.00;102633.03;8288573;28;20500;-57
2024/01/27 07:59:22;;;;;;;12.98;4.63;;;;;;;1.91;100.00;102644.47;8292853;28;20042;-56
2024/01/27 08:03:23;;;;;;;13.98;4.05;;;;;;;2.14;100.00;102647.50;8288156;28;20042;-57
2024/01/27 08:07:23;;;;;;;25.17;5.65;;;;;;;2.17;100.00;102639.44;8290868;28;20574;-57
2024/01/27 08:11:24;;;;;;;19.15;5.45;;;;;;;2.10;100.00;102651.13;8291187;28;20073;-57
2024/01/27 08:15:26;;;;;;;27.90;5.40;;;;;;;2.22;100.00;102650.00;8287183;28;20069;-57
2024/01/27 08:19:27;;;;;;;15.63;4.38;;;;;;;2.30;100.00;102654.22;8287120;28;20037;-56
2024/01/27 08:23:27;;;;;;;12.13;4.45;;;;;;;2.57;100.00;102658.91;8282657;28;20074;-57
2024/01/27 08:27:27;;;;;;;20.92;5.65;;;;;;;2.67;100.00;102664.88;8302072;28;20045;-57
2024/01/27 08:31:28;;;;;;;16.88;4.82;;;;;;;2.75;100.00;102662.91;8293159;28;20113;-56
2024/01/27 08:35:28;;;;;;;20.67;5.93;;;;;;;2.82;100.00;102665.38;8294019;28;20096;-56
2024/01/27 08:39:29;;;;;;;15.75;4.95;;;;;;;3.05;100.00;102662.97;8291420;28;20046;-57
2024/01/27 08:43:29;;;;;;;18.77;4.10;;;;;;;3.25;100.00;102660.66;8286460;28;20042;-56
2024/01/27 08:47:30;;;;;;;21.10;4.18;;;;;;;3.35;100.00;102659.47;8284583;28;20330;-56
2024/01/27 08:51:31;;;;;;;15.68;3.83;;;;;;;3.51;100.00;102642.06;8287795;28;20038;-56
2024/01/27 08:55:32;;;;;;;23.33;5.00;;;;;;;3.65;100.00;102647.91;8287862;28;20371;-55
2024/01/27 08:59:32;;;;;;;20.35;5.38;;;;;;;3.79;100.00;102645.69;8287755;28;20048;-57
2024/01/27 09:03:33;;;;;;;13.95;4.75;;;;;;;3.98;100.00;102628.16;8288601;28;20049;-56
2024/01/27 09:07:34;;;;;;;24.70;6.00;;;;;;;5.21;95.75;102623.06;8287429;28;20072;-57
2024/01/27 09:11:34;;;;;;;16.92;3.85;;;;;;;7.02;85.20;102630.09;8287367;28;20045;-55
2024/01/27 09:15:35;;;;;;;10.85;3.70;;;;;;;8.24;79.05;102620.88;8287644;28;20037;-56
2024/01/27 09:19:35;;;;;;;13.70;4.18;;;;;;;8.86;77.19;102621.31;8287025;28;20034;-57
2024/01/27 09:23:36;;;;;;;15.18;4.25;;;;;;;9.35;74.04;102617.78;8284793;28;20484;-57
2024/01/27 09:27:37;;;;;;;14.27;3.72;;;;;;;10.08;71.27;102623.66;8285838;28;20390;-57
2024/01/27 09:31:37;;;;;;;13.98;3.38;;;;;;;10.17;70.96;102617.75;8286995;28;20053;-56
2024/01/27 09:35:38;;;;;;;10.93;3.20;;;;;;;10.20;71.93;102604.06;8285767;28;20046;-57
2024/01/27 09:39:38;;;;;;;10.30;3.25;;;;;;;10.11;72.27;102609.09;8286393;28;20041;-55
2024/01/27 09:43:42;;;;;;;9.70;3.13;;;;;;;10.52;70.49;102624.69;8286500;28;20053;-55
2024/01/27 09:47:45;;;;;;;15.20;3.70;;;;;;;10.91;69.37;102618.75;8286613;28;20104;-58
2024/01/27 09:51:46;;;;;;;19.33;4.03;;;;;;;10.94;69.25;102630.28;8286229;28;20042;-55
2024/01/27 09:55:46;;;;;;;9.30;4.30;;;;;;;11.64;66.95;102644.03;8286940;28;20096;-55
2024/01/27 09:59:49;;;;;;;15.30;3.55;;;;;;;10.28;68.24;102638.75;8286281;28;20030;-58
2024/01/27 10:03:49;;;;;;;14.80;3.53;;;;;;;10.12;70.70;102630.63;8266437;28;20140;-59
2024/01/27 10:07:50;;;;;;;10.82;3.70;;;;;;;10.03;72.26;102620.31;8285105;28;20053;-57
2024/01/27 10:11:53;;;;;;;29.27;3.92;;;;;;;11.30;69.01;102628.09;8286255;28;20432;-57
2024/01/27 10:16:11;;;;;;;14.60;3.40;;;;;;;12.30;66.28;102627.13;8285745;28;20041;-57
2024/01/27 10:20:15;;;;;;;10.70;3.15;;;;;;;13.25;62.90;102621.53;8283173;28;20041;-57
2024/01/27 10:24:16;;;;;;;12.75;3.15;;;;;;;14.03;60.05;102625.88;8284643;28;20074;-58
2024/01/27 10:28:17;;;;;;;12.15;2.92;;;;;;;13.41;59.15;102616.75;8284924;28;20038;-57
2024/01/27 10:32:17;;;;;;;11.75;3.20;;;;;;;12.27;63.09;102616.47;8281916;28;20046;-59
2024/01/27 10:36:17;;;;;;;15.23;3.30;;;;;;;13.09;62.97;102618.97;8285035;28;20404;-59
2024/01/27 10:40:18;;;;;;;13.38;2.80;;;;;;;14.46;58.18;102617.19;8281951;28;20038;-55
2024/01/27 10:44:20;;;;;;;8.80;2.45;;;;;;;12.94;58.85;102630.88;8281575;28;20042;-58
2024/01/27 10:48:21;;;;;;;9.52;2.50;;;;;;;12.74;63.04;102630.47;8285288;28;20052;-58
2024/01/27 10:52:28;;;;;;;15.50;3.45;;;;;;;11.48;66.29;102632.38;8284245;28;20038;-58
2024/01/27 10:56:33;;;;;;;17.88;4.00;;;;;;;10.67;71.25;102634.63;8285169;28;20117;-56
2024/01/27 11:00:34;;;;;;;12.15;2.75;;;;;;;10.23;71.51;102620.09;8283541;28;20038;-56
2024/01/27 11:04:36;;;;;;;17.10;2.92;;;;;;;11.15;70.05;102617.28;8278848;28;20412;-55
2024/01/27 11:08:38;;;;;;;13.35;2.78;;;;;;;12.40;65.87;102604.72;8282840;28;20528;-55
2024/01/27 11:12:39;;;;;;;15.13;3.20;;;;;;;13.25;62.25;102602.50;8284121;28;20129;-56
2024/01/27 11:16:44;;;;;;;12.88;2.78;;;;;;;13.19;60.89;102602.94;8284780;28;20042;-54
2024/01/27 11:20:45;;;;;;;12.95;3.08;;;;;;;14.21;60.18;102606.34;8283506;28;20415;-54
2024/01/27 11:24:45;;;;;;;15.60;3.13;;;;;;;14.44;57.73;102613.72;8283579;28;20074;-55
2024/01/27 11:28:48;;;;;;;13.40;2.72;;;;;;;13.88;58.89;102619.69;8286541;28;20041;-55
2024/01/27 11:32:49;;;;;;;15.68;3.35;;;;;;;12.52;60.57;102628.34;8275097;28;20404;-55
2024/01/27 11:36:49;;;;;;;11.98;2.95;;;;;;;13.18;60.29;102633.78;8289820;28;20038;-55
2024/01/27 11:40:50;;;;;;;10.38;2.60;;;;;;;14.07;58.71;102630.97;8290836;28;20034;-56
2024/01/27 11:44:50;;;;;;;13.13;2.88;;;;;;;13.80;58.37;102632.97;8290628;28;20044;-55
2024/01/27 11:48:51;;;;;;;12.23;3.45;;;;;;;13.46;59.07;102639.06;8289139;28;20046;-55
2024/01/27 11:52:51;;;;;;;10.13;2.85;;;;;;;13.18;58.55;102639.22;8282350;28;20091;-56
2024/01/27 11:56:52;;;;;;;11.57;2.75;;;;;;;13.18;59.16;102642.78;8310292;28;20026;-56
2024/01/27 12:00:52;;;;;;;12.98;2.95;;;;;;;13.57;58.28;102628.28;8282019;28;20034;-56
2024/01/27 12:04:52;;;;;;;11.95;3.03;;;;;;;13.61;58.32;102627.94;8288187;28;20040;-56
2024/01/27 12:08:56;;;;;;;9.02;2.78;;;;;;;12.97;58.95;102629.81;8285301;28;20112;-57
2024/01/27 12:12:57;;;;;;;12.60;2.45;;;;;;;13.41;58.72;102614.91;8290204;28;20034;-57
2024/01/27 12:16:57;;;;;;;12.13;2.75;;;;;;;13.24;59.27;102617.91;8289949;28;20057;-57
2024/01/27 12:20:58;;;;;;;16.17;3.05;;;;;;;12.53;60.18;102618.34;8279525;28;20189;-58
2024/01/27 12:25:14;;;;;;;13.48;2.63;;;;;;;11.56;61.95;102616.50;8287599;28;20092;-57
2024/01/27 12:29:14;;;;;;;9.85;2.97;;;;;;;12.80;60.92;102611.94;8287616;28;20530;-57
2024/01/27 12:33:15;;;;;;;15.10;2.53;;;;;;;12.59;60.54;102604.38;8274987;28;20078;-58
2024/01/27 12:37:16;;;;;;;12.80;2.30;;;;;;;14.14;57.40;102594.16;8285123;28;20481;-57
2024/01/27 12:41:17;;;;;;;12.73;3.15;;;;;;;12.84;58.91;102599.03;8284595;28;20049;-57
2024/01/27 12:45:18;;;;;;;12.07;3.20;;;;;;;13.48;57.78;102582.75;8283942;28;20053;-56
2024/01/27 12:49:19;;;;;;;10.20;2.40;;;;;;;12.80;58.54;102589.34;8281554;28;20042;-56
2024/01/27 12:53:19;;;;;;;18.45;3.17;;;;;;;12.63;59.42;102592.34;8287936;28;20034;-57
2024/01/27 12:57:20;;;;;;;17.92;3.20;;;;;;;12.05;60.31;102594.44;8287111;28;20582;-56
2024/01/27 13:01:20;;;;;;;16.30;2.90;;;;;;;11.45;62.38;102600.06;8281798;28;20038;-56
2024/01/27 13:05:21;;;;;;;12.63;2.85;;;;;;;11.31;63.11;102596.44;8287823;28;20042;-56
2024/01/27 13:09:21;;;;;;;18.80;2.50;;;;;;;11.68;62.73;102591.38;8282508;28;20038;-56
2024/01/27 13:13:22;;;;;;;14.05;2.83;;;;;;;10.99;65.27;102584.88;8286747;28;20045;-55
2024/01/27 13:17:22;;;;;;;19.70;2.88;;;;;;;10.76;64.44;102588.09;8278571;28;20594;-57
2024/01/27 13:21:23;;;;;;;18.02;2.80;;;;;;;10.61;64.15;102583.59;8280753;28;20117;-56
2024/01/27 13:25:23;;;;;;;10.45;2.42;;;;;;;10.64;65.03;102579.84;8286148;28;20427;-58
2024/01/27 13:29:24;;;;;;;12.85;3.05;;;;;;;10.55;63.63;102574.97;8283102;28;20042;-62
2024/01/27 13:33:24;;;;;;;15.32;2.22;;;;;;;10.53;63.24;102580.47;8286329;28;20558;-56
2024/01/27 13:37:25;;;;;;;11.52;2.25;;;;;;;10.60;64.46;102578.25;8286099;28;20034;-58
2024/01/27 13:41:25;;;;;;;18.00;2.65;;;;;;;10.61;63.73;102575.47;8286119;28;20500;-57
2024/01/27 13:45:26;;;;;;;15.38;2.95;;;;;;;10.63;63.92;102570.84;8288822;28;20700;-57
2024/01/27 13:49:26;;;;;;;9.57;1.90;;;;;;;10.57;61.16;102565.81;8287018;28;20069;-59
2024/01/27 13:53:27;;;;;;;9.07;1.67;;;;;;;10.42;61.24;102572.09;8287212;28;20096;-57
2024/01/27 13:57:27;;;;;;;12.23;2.17;;;;;;;10.68;62.15;102568.75;8286328;28;20038;-57
2024/01/27 14:01:28;;;;;;;15.68;2.83;;;;;;;10.39;62.84;102561.47;8284487;28;20049;-58
2024/01/27 14:05:29;;;;;;;14.05;2.28;;;;;;;10.46;63.35;102560.13;8285896;28;20062;-59
2024/01/27 14:09:30;;;;;;;13.48;2.10;;;;;;;10.63;63.17;102554.63;8284844;28;20045;-57
2024/01/27 14:13:30;;;;;;;11.43;1.90;;;;;;;10.52;62.29;102551.66;8285613;28;20045;-57
2024/01/27 14:17:30;;;;;;;12.13;2.38;;;;;;;10.56;63.28;102546.97;8284799;28;20044;-57
2024/01/27 14:21:32;;;;;;;15.82;2.88;;;;;;;10.51;63.00;102541.81;8282308;28;20303;-57
2024/01/27 14:25:32;;;;;;;9.63;2.05;;;;;;;10.33;63.98;102545.59;8283308;28;20455;-57
2024/01/27 14:29:34;;;;;;;10.70;2.75;;;;;;;10.49;62.85;102549.13;8284882;28;20042;-56
2024/01/27 14:33:35;;;;;;;10.15;2.08;;;;;;;10.50;64.92;102537.38;8284598;28;20049;-58
2024/01/27 14:37:36;;;;;;;10.25;2.08;;;;;;;10.38;65.60;102532.69;8283227;28;20038;-57
2024/01/27 14:41:38;;;;;;;10.52;2.13;;;;;;;10.30;64.96;102526.84;8284494;28;20048;-58
2024/01/27 14:45:38;;;;;;;12.65;1.73;;;;;;;10.22;66.43;102515.63;8284241;28;20568;-57
2024/01/27 14:49:39;;;;;;;15.55;2.30;;;;;;;10.34;64.31;102512.19;8282681;28;20516;-56
2024/01/27 14:53:41;;;;;;;13.98;2.05;;;;;;;10.36;64.69;102518.38;8283649;28;20041;-56
2024/01/27 14:57:41;;;;;;;17.13;2.38;;;;;;;10.26;65.38;102511.78;8284948;28;20125;-58
2024/01/27 15:01:42;;;;;;;13.00;2.60;;;;;;;10.23;64.13;102517.38;8290839;28;20042;-59
2024/01/27 15:05:42;;;;;;;15.00;2.60;;;;;;;10.19;65.17;102515.81;8291119;28;20061;-58
2024/01/27 15:09:43;;;;;;;21.67;3.38;;;;;;;10.06;65.88;102525.53;8290262;28;20369;-61
2024/01/27 15:13:43;;;;;;;11.80;2.45;;;;;;;10.12;64.26;102519.81;8289515;28;20030;-57
2024/01/27 15:17:44;;;;;;;17.23;4.28;;;;;;;10.05;65.66;102507.59;8289912;28;20041;-58
2024/01/27 15:21:45;;;;;;;13.77;3.80;;;;;;;9.83;66.78;102512.50;8290347;28;20037;-57
2024/01/27 15:25:47;;;;;;;12.48;3.05;;;;;;;9.77;66.63;102526.34;8289962;28;20050;-56
2024/01/27 15:29:48;;;;;;;14.40;3.63;;;;;;;9.63;67.41;102515.44;8290394;28;20049;-58
2024/01/27 15:33:48;;;;;;;19.88;8.15;;;;;;;9.58;68.47;102512.13;8290258;28;20053;-55
2024/01/27 15:37:49;;;;;;;9.48;2.67;;;;;;;9.20;70.60;102505.25;8289514;28;20037;-56
2024/01/27 15:41:50;;;;;;;27.92;10.40;;;;;;;9.24;70.77;102512.25;8289504;28;20044;-60
2024/01/27 15:45:52;;;;;;;31.20;11.43;;;;;;;9.20;70.43;102502.56;8289354;28;20034;-58
2024/01/27 15:49:56;;;;;;;15.35;2.58;;;;;;;9.02;71.39;102495.44;8289456;28;20504;-58
2024/01/27 15:53:56;;;;;;;;;;;;;;;9.03;70.78;102497.22;8297497;28;20037;-63
2024/01/27 15:57:57;;;;;;;13.37;2.40;;;;;;;8.66;72.33;102498.28;8288551;28;19917;-58
2024/01/27 16:01:58;;;;;;;13.77;2.40;;;;;;;8.61;71.93;102494.09;8284718;28;20891;-58
2024/01/27 16:05:58;;;;;;;11.80;2.63;;;;;;;8.49;72.32;102494.72;8288928;28;20049;-58
2024/01/27 16:10:01;;;;;;;11.82;2.65;;;;;;;8.38;72.94;102478.25;8288551;28;20038;-57
2024/01/27 16:14:02;;;;;;;16.92;3.67;;;;;;;8.30;74.08;102477.75;8288637;28;20522;-65
2024/01/27 16:18:02;;;;;;;17.50;4.30;;;;;;;8.26;74.90;102492.34;8288429;28;20817;-55
2024/01/27 16:22:03;;;;;;;30.50;7.13;;;;;;;8.18;75.26;102498.09;8288547;28;20061;-56
2024/01/27 16:26:04;;;;;;;15.75;4.80;;;;;;;8.24;74.62;102488.84;8288238;28;20459;-56
2024/01/27 16:30:06;;;;;;;16.88;5.03;;;;;;;8.17;74.76;102493.63;8287396;28;20045;-57
2024/01/27 16:34:06;;;;;;;20.92;6.20;;;;;;;8.06;75.43;102483.38;8288745;28;20030;-57
2024/01/27 16:38:07;;;;;;;14.18;3.90;;;;;;;7.80;76.28;102494.59;8287463;28;20042;-57
2024/01/27 16:42:08;;;;;;;17.88;5.05;;;;;;;7.72;77.00;102496.75;8287051;28;20071;-58
2024/01/27 16:46:08;;;;;;;16.23;5.68;;;;;;;7.75;76.84;102485.84;8287576;28;20490;-56
2024/01/27 16:50:09;;;;;;;21.05;5.50;;;;;;;7.86;76.35;102499.66;8287366;28;20523;-56
2024/01/27 16:54:12;;;;;;;20.60;5.78;;;;;;;7.93;75.92;102495.72;8285714;28;20038;-60
2024/01/27 16:58:12;;;;;;;20.60;4.10;;;;;;;7.84;76.11;102490.78;8287470;28;20129;-58
2024/01/27 17:02:13;;;;;;;12.75;4.47;;;;;;;7.81;76.32;102490.94;8287140;28;20046;-56
2024/01/27 17:06:13;;;;;;;18.13;4.75;;;;;;;7.77;76.46;102501.94;8287128;28;20161;-59
2024/01/27 17:10:13;;;;;;;19.95;4.90;;;;;;;7.72;76.59;102501.28;8286680;28;20397;-58
2024/01/27 17:14:14;;;;;;;22.02;5.30;;;;;;;7.73;76.41;102485.06;8284759;28;20262;-58
2024/01/27 17:18:15;;;;;;;22.58;7.85;;;;;;;7.72;76.13;102488.69;8285924;28;20049;-58
2024/01/27 17:22:17;;;;;;;30.45;9.73;;;;;;;7.69;76.38;102486.13;8283544;28;20508;-57
2024/01/27 17:26:18;;;;;;;28.55;9.48;;;;;;;7.68;75.89;102481.72;8286202;28;20053;-56
2024/01/27 17:30:18;;;;;;;40.70;9.60;;;;;;;7.65;76.26;102479.16;8273847;28;20046;-59
2024/01/27 17:34:20;;;;;;;21.50;7.18;;;;;;;7.61;76.43;102477.59;8293780;28;20387;-58
2024/01/27 17:38:21;;;;;;;24.35;5.90;;;;;;;7.50;76.29;102482.59;8280710;28;20092;-57
2024/01/27 17:42:21;;;;;;;18.23;4.78;;;;;;;7.38;77.68;102482.31;8284797;28;20041;-57
2024/01/27 17:46:22;;;;;;;19.42;6.45;;;;;;;7.38;77.31;102490.41;8291410;28;20125;-56
2024/01/27 17:50:22;;;;;;;28.63;7.57;;;;;;;7.31;77.78;102479.03;8290005;28;20041;-57
2024/01/27 17:54:23;;;;;;;27.83;7.90;;;;;;;7.25;78.05;102482.00;8294318;28;20354;-56
2024/01/27 17:58:24;;;;;;;25.13;6.95;;;;;;;7.14;79.06;102480.78;8288490;28;20133;-58
2024/01/27 18:02:25;;;;;;;28.33;7.05;;;;;;;7.11;79.32;102481.75;8291241;28;20038;-57
2024/01/27 18:06:28;;;;;;;23.58;6.63;;;;;;;6.94;79.56;102489.75;8289645;28;20033;-56
2024/01/27 18:10:28;;;;;;;32.33;8.95;;;;;;;6.92;80.43;102485.38;8274725;28;20042;-55
2024/01/27 18:14:29;;;;;;;23.23;7.13;;;;;;;6.77;80.66;102488.75;8285599;28;20171;-57
2024/01/27 18:18:29;;;;;;;24.65;8.45;;;;;;;6.72;81.33;102488.97;8284371;28;20057;-56
2024/01/27 18:22:30;;;;;;;20.30;7.07;;;;;;;6.64;82.01;102485.72;8284484;28;20323;-57
2024/01/27 18:26:30;;;;;;;23.00;8.05;;;;;;;6.56;82.69;102485.19;8284921;28;20124;-56
2024/01/27 18:30:30;;;;;;;23.90;7.45;;;;;;;6.58;82.91;102491.38;8280300;28;20034;-57